Time;durP1;ratioP1;P1;durP2;ratioP2;P2;SDS_P1;SDS_P2;PMS_P1;PMS_P2;Temp;Humidity;BMP_temperature;BMP_pressure;BME280_temperature;BME280_humidity;BME280_pressure;Samples;Min_cycle;Max_cycle;Signal;HPM_P1;HPM_P2
2022/09/21 00:02:00;;;;;;;0.50;0.50;;;;;;;;;;5026070;28;20223;-82
2022/09/21 00:04:29;;;;;;;0.63;0.63;;;;;;;;;;5033051;28;20210;-83
2022/09/21 00:06:58;;;;;;;0.50;0.50;;;;;;;;;;5025038;28;20215;-83
2022/09/21 00:09:26;;;;;;;0.50;0.50;;;;;;;;;;5015703;28;20200;-82
2022/09/21 00:11:56;;;;;;;0.60;0.60;;;;;;;;;;5016316;28;20200;-82
2022/09/21 00:14:25;;;;;;;0.50;0.50;;;;;;;;;;5028781;28;20204;-83
2022/09/21 00:16:54;;;;;;;0.50;0.50;;;;;;;;;;5015243;28;20299;-82
2022/09/21 00:19:23;;;;;;;0.97;0.97;;;;;;;;;;5022580;28;20209;-82
2022/09/21 00:21:54;;;;;;;0.50;0.50;;;;;;;;;;5021913;28;20196;-83
2022/09/21 00:24:23;;;;;;;0.50;0.50;;;;;;;;;;5028851;28;20230;-83
2022/09/21 00:26:52;;;;;;;0.70;0.70;;;;;;;;;;5034703;28;20200;-82
2022/09/21 00:29:22;;;;;;;0.50;0.50;;;;;;;;;;5035093;28;20209;-83
2022/09/21 00:31:50;;;;;;;0.50;0.50;;;;;;;;;;5035155;28;20227;-82
2022/09/21 00:34:19;;;;;;;0.60;0.60;;;;;;;;;;5035431;28;20203;-82
2022/09/21 00:36:48;;;;;;;0.53;0.53;;;;;;;;;;5052362;28;20207;-83
2022/09/21 00:39:17;;;;;;;1.60;0.93;;;;;;;;;;5035132;28;20201;-82
2022/09/21 00:41:45;;;;;;;0.50;0.50;;;;;;;;;;5018630;28;20202;-83
2022/09/21 00:44:34;;;;;;;0.50;0.50;;;;;;;;;;5033166;28;20309;-81
2022/09/21 00:47:08;;;;;;;0.43;0.43;;;;;;;;;;5030203;28;20203;-82
2022/09/21 00:49:37;;;;;;;0.50;0.50;;;;;;;;;;5017513;28;20202;-82
2022/09/21 00:52:06;;;;;;;0.50;0.50;;;;;;;;;;5035223;28;20225;-83
2022/09/21 00:54:39;;;;;;;1.40;1.40;;;;;;;;;;5019139;28;21106;-82
2022/09/21 00:57:08;;;;;;;0.57;0.57;;;;;;;;;;5015810;28;20230;-82
2022/09/21 00:59:37;;;;;;;1.40;1.03;;;;;;;;;;5037226;28;20217;-82
2022/09/21 01:02:08;;;;;;;0.50;0.50;;;;;;;;;;5033752;28;20247;-82
2022/09/21 01:04:37;;;;;;;0.57;0.57;;;;;;;;;;5019814;28;20202;-82
2022/09/21 01:07:07;;;;;;;6.27;1.23;;;;;;;;;;5033844;28;20206;-83
2022/09/21 01:09:36;;;;;;;0.70;0.70;;;;;;;;;;5035041;28;20222;-83
2022/09/21 01:12:11;;;;;;;0.40;0.40;;;;;;;;;;5018730;28;20212;-83
2022/09/21 01:14:54;;;;;;;0.50;0.50;;;;;;;;;;5015809;28;20371;-83
2022/09/21 01:17:31;;;;;;;0.50;0.50;;;;;;;;;;5030366;28;20197;-83
2022/09/21 01:20:10;;;;;;;0.40;0.40;;;;;;;;;;5015502;28;20234;-83
2022/09/21 01:22:46;;;;;;;0.50;0.50;;;;;;;;;;5002784;28;20319;-83
2022/09/21 01:25:23;;;;;;;0.53;0.53;;;;;;;;;;5045797;28;20213;-83
2022/09/21 01:27:58;;;;;;;0.50;0.50;;;;;;;;;;5016590;28;20208;-82
2022/09/21 01:30:30;;;;;;;0.70;0.70;;;;;;;;;;5023305;28;20305;-82
2022/09/21 01:33:03;;;;;;;0.80;0.80;;;;;;;;;;5037799;28;20259;-82
2022/09/21 01:35:34;;;;;;;0.40;0.40;;;;;;;;;;5038935;28;20202;-83
2022/09/21 01:38:04;;;;;;;0.50;0.50;;;;;;;;;;5038658;28;20212;-83
2022/09/21 01:40:34;;;;;;;1.13;1.13;;;;;;;;;;5038270;28;20198;-83
2022/09/21 01:43:04;;;;;;;0.50;0.50;;;;;;;;;;5026228;28;20202;-83
2022/09/21 01:45:36;;;;;;;1.17;1.17;;;;;;;;;;5037598;28;20202;-82
2022/09/21 01:48:05;;;;;;;0.50;0.50;;;;;;;;;;5038351;28;20198;-83
2022/09/21 01:50:36;;;;;;;0.50;0.50;;;;;;;;;;5035164;28;20301;-83
2022/09/21 01:53:08;;;;;;;0.50;0.50;;;;;;;;;;5036697;28;20196;-83
2022/09/21 01:55:41;;;;;;;0.50;0.50;;;;;;;;;;5035750;28;20297;-83
2022/09/21 01:58:12;;;;;;;0.50;0.50;;;;;;;;;;5026337;28;20199;-83
2022/09/21 02:00:46;;;;;;;0.50;0.50;;;;;;;;;;5031686;28;20227;-83
2022/09/21 02:03:17;;;;;;;0.50;0.50;;;;;;;;;;5031691;28;20317;-82
2022/09/21 02:05:46;;;;;;;1.83;1.73;;;;;;;;;;5044111;28;20205;-83
2022/09/21 02:08:14;;;;;;;1.23;1.23;;;;;;;;;;5035222;28;20210;-83
2022/09/21 02:10:45;;;;;;;0.50;0.50;;;;;;;;;;5018192;28;20241;-83
2022/09/21 02:13:15;;;;;;;0.50;0.50;;;;;;;;;;5019492;28;20286;-83
2022/09/21 02:15:51;;;;;;;0.70;0.70;;;;;;;;;;5029633;28;20191;-83
2022/09/21 02:18:26;;;;;;;0.80;0.80;;;;;;;;;;5018323;28;20281;-83
2022/09/21 02:20:57;;;;;;;0.57;0.57;;;;;;;;;;5018015;28;20199;-83
2022/09/21 02:23:27;;;;;;;0.90;0.90;;;;;;;;;;5035459;28;20219;-82
2022/09/21 02:25:59;;;;;;;0.60;0.60;;;;;;;;;;5018296;28;20211;-83
2022/09/21 02:28:34;;;;;;;0.50;0.50;;;;;;;;;;5031343;28;20199;-82
2022/09/21 02:31:09;;;;;;;0.93;0.93;;;;;;;;;;5030763;28;20214;-83
2022/09/21 02:33:40;;;;;;;0.50;0.50;;;;;;;;;;5007260;28;20221;-82
2022/09/21 02:36:11;;;;;;;0.97;0.97;;;;;;;;;;5001713;28;20199;-83
2022/09/21 02:38:45;;;;;;;0.50;0.50;;;;;;;;;;5025723;28;20203;-83
2022/09/21 02:41:17;;;;;;;0.50;0.50;;;;;;;;;;5016980;28;20196;-83
2022/09/21 02:43:48;;;;;;;0.50;0.50;;;;;;;;;;4997861;28;20207;-82
2022/09/21 02:46:20;;;;;;;0.60;0.60;;;;;;;;;;4998248;28;20239;-83
2022/09/21 02:48:50;;;;;;;0.50;0.50;;;;;;;;;;4997916;28;20235;-83
2022/09/21 02:51:22;;;;;;;0.60;0.60;;;;;;;;;;5010110;28;20226;-83
2022/09/21 02:53:52;;;;;;;0.60;0.60;;;;;;;;;;4998297;28;20222;-83
2022/09/21 02:56:21;;;;;;;0.57;0.57;;;;;;;;;;5006955;28;20199;-83
2022/09/21 02:58:55;;;;;;;0.50;0.50;;;;;;;;;;5031642;28;20188;-83
2022/09/21 03:01:26;;;;;;;0.50;0.50;;;;;;;;;;5026163;28;20222;-83
2022/09/21 03:03:54;;;;;;;0.50;0.50;;;;;;;;;;4998835;28;20262;-82
2022/09/21 03:06:25;;;;;;;0.50;0.50;;;;;;;;;;5015096;28;20204;-83
2022/09/21 03:08:53;;;;;;;0.53;0.53;;;;;;;;;;5027217;28;20254;-83
2022/09/21 03:11:22;;;;;;;0.50;0.50;;;;;;;;;;4997915;28;20216;-83
2022/09/21 03:13:50;;;;;;;1.00;1.00;;;;;;;;;;4991221;28;20290;-83
2022/09/21 03:16:18;;;;;;;0.50;0.50;;;;;;;;;;5003330;28;20207;-83
2022/09/21 03:18:48;;;;;;;0.60;0.60;;;;;;;;;;5004861;28;20207;-83
2022/09/21 03:21:17;;;;;;;0.50;0.50;;;;;;;;;;5016428;28;20231;-83
2022/09/21 03:23:45;;;;;;;2.07;1.90;;;;;;;;;;5026148;28;20261;-83
2022/09/21 03:26:13;;;;;;;0.93;0.93;;;;;;;;;;5010381;28;20206;-83
2022/09/21 03:28:42;;;;;;;0.67;0.67;;;;;;;;;;4997316;28;20299;-83
2022/09/21 03:31:11;;;;;;;0.50;0.50;;;;;;;;;;4997435;28;20293;-82
2022/09/21 03:33:39;;;;;;;0.50;0.50;;;;;;;;;;5007461;28;20269;-83
2022/09/21 03:36:10;;;;;;;0.50;0.50;;;;;;;;;;5016920;28;20198;-83
2022/09/21 03:38:38;;;;;;;0.50;0.50;;;;;;;;;;5025449;28;20231;-83
2022/09/21 03:41:07;;;;;;;0.50;0.50;;;;;;;;;;5020888;28;20240;-83
2022/09/21 03:43:35;;;;;;;0.50;0.50;;;;;;;;;;5036292;28;20201;-83
2022/09/21 03:46:05;;;;;;;0.60;0.60;;;;;;;;;;5017601;28;20191;-83
2022/09/21 03:48:34;;;;;;;0.60;0.60;;;;;;;;;;5016547;28;20203;-83
2022/09/21 03:51:02;;;;;;;0.50;0.50;;;;;;;;;;5022487;28;20207;-82
2022/09/21 03:53:32;;;;;;;0.50;0.50;;;;;;;;;;5023116;28;20215;-83
2022/09/21 03:56:00;;;;;;;0.60;0.60;;;;;;;;;;5021477;28;20202;-82
2022/09/21 03:58:28;;;;;;;0.60;0.60;;;;;;;;;;5017163;28;20203;-83
2022/09/21 04:01:02;;;;;;;0.57;0.57;;;;;;;;;;5045821;28;20223;-82
2022/09/21 04:03:31;;;;;;;0.70;0.70;;;;;;;;;;5014888;28;20292;-82
2022/09/21 04:05:59;;;;;;;0.60;0.60;;;;;;;;;;5035714;28;20280;-83
2022/09/21 04:08:27;;;;;;;1.23;1.23;;;;;;;;;;5031622;28;20190;-83
2022/09/21 04:10:57;;;;;;;0.60;0.60;;;;;;;;;;5025428;28;20217;-82
2022/09/21 04:13:25;;;;;;;0.60;0.60;;;;;;;;;;5019826;28;20304;-83
2022/09/21 04:15:54;;;;;;;0.90;0.90;;;;;;;;;;5016413;28;20289;-82
2022/09/21 04:18:22;;;;;;;0.60;0.60;;;;;;;;;;5029204;28;20293;-82
2022/09/21 04:20:51;;;;;;;0.50;0.50;;;;;;;;;;5026571;28;20207;-82
2022/09/21 04:23:21;;;;;;;0.50;0.50;;;;;;;;;;5034661;28;20198;-83
2022/09/21 04:25:50;;;;;;;0.60;0.60;;;;;;;;;;5035248;28;20198;-83
2022/09/21 04:28:20;;;;;;;0.60;0.60;;;;;;;;;;5034686;28;20206;-83
2022/09/21 04:30:48;;;;;;;0.97;0.97;;;;;;;;;;5023401;28;20206;-83
2022/09/21 04:33:17;;;;;;;0.60;0.60;;;;;;;;;;5034429;28;20232;-83
2022/09/21 04:35:45;;;;;;;0.60;0.60;;;;;;;;;;5034012;28;20233;-83
2022/09/21 04:38:14;;;;;;;0.60;0.60;;;;;;;;;;5040577;28;20222;-83
2022/09/21 04:40:42;;;;;;;0.53;0.53;;;;;;;;;;5034533;28;20220;-83
2022/09/21 04:43:10;;;;;;;1.33;1.30;;;;;;;;;;5023663;28;20195;-83
2022/09/21 04:45:40;;;;;;;0.80;0.80;;;;;;;;;;5021018;28;20226;-82
2022/09/21 04:48:09;;;;;;;0.60;0.60;;;;;;;;;;5016051;28;20202;-83
2022/09/21 04:50:38;;;;;;;0.70;0.70;;;;;;;;;;5017644;28;20253;-83
2022/09/21 04:53:06;;;;;;;0.60;0.60;;;;;;;;;;5042410;28;20271;-83
2022/09/21 04:55:35;;;;;;;1.97;1.83;;;;;;;;;;5034398;28;20226;-82
2022/09/21 04:58:03;;;;;;;0.50;0.50;;;;;;;;;;5052028;28;20256;-82
2022/09/21 05:00:32;;;;;;;0.80;0.80;;;;;;;;;;5051846;28;20276;-83
2022/09/21 05:03:02;;;;;;;0.60;0.60;;;;;;;;;;5054453;28;20289;-82
2022/09/21 05:05:31;;;;;;;0.60;0.60;;;;;;;;;;5034217;28;20211;-82
2022/09/21 05:08:00;;;;;;;0.60;0.60;;;;;;;;;;5020637;28;20206;-82
2022/09/21 05:10:27;;;;;;;0.50;0.50;;;;;;;;;;5019647;28;20207;-82
2022/09/21 05:12:56;;;;;;;0.50;0.50;;;;;;;;;;5019349;28;20219;-82
2022/09/21 05:15:24;;;;;;;0.60;0.60;;;;;;;;;;5025854;28;20206;-82
2022/09/21 05:17:53;;;;;;;0.50;0.50;;;;;;;;;;5056224;28;20259;-83
2022/09/21 05:20:23;;;;;;;0.50;0.50;;;;;;;;;;5032169;28;20203;-83
2022/09/21 05:22:51;;;;;;;0.80;0.80;;;;;;;;;;5036735;28;20191;-83
2022/09/21 05:25:19;;;;;;;1.43;1.43;;;;;;;;;;5019852;28;20199;-83
2022/09/21 05:27:48;;;;;;;0.50;0.50;;;;;;;;;;5018921;28;20210;-83
2022/09/21 05:30:17;;;;;;;0.60;0.60;;;;;;;;;;5019103;28;20202;-83
2022/09/21 05:32:48;;;;;;;0.60;0.60;;;;;;;;;;5033799;28;20283;-83
2022/09/21 05:35:23;;;;;;;1.13;1.13;;;;;;;;;;5029197;28;20290;-83
2022/09/21 05:37:56;;;;;;;0.60;0.60;;;;;;;;;;5035407;28;20204;-83
2022/09/21 05:40:25;;;;;;;0.90;0.90;;;;;;;;;;5038591;28;20221;-83
2022/09/21 05:42:55;;;;;;;0.60;0.60;;;;;;;;;;5037003;28;20222;-83
2022/09/21 05:45:24;;;;;;;0.87;0.87;;;;;;;;;;5025766;28;20214;-82
2022/09/21 05:48:03;;;;;;;1.30;0.80;;;;;;;;;;5037572;28;20213;-82
2022/09/21 05:50:35;;;;;;;0.60;0.60;;;;;;;;;;5035395;28;20198;-82
2022/09/21 05:53:11;;;;;;;0.60;0.60;;;;;;;;;;5027554;28;20238;-82
2022/09/21 05:55:45;;;;;;;2.30;2.30;;;;;;;;;;5021544;28;20199;-82
2022/09/21 05:58:17;;;;;;;0.60;0.60;;;;;;;;;;5029793;28;20198;-82
2022/09/21 06:00:53;;;;;;;0.60;0.60;;;;;;;;;;5024870;28;20222;-82
2022/09/21 06:03:28;;;;;;;0.60;0.60;;;;;;;;;;5037419;28;20202;-81
2022/09/21 06:05:56;;;;;;;0.60;0.60;;;;;;;;;;5018999;28;20194;-82
2022/09/21 06:08:26;;;;;;;0.60;0.60;;;;;;;;;;5031462;28;20234;-82
2022/09/21 06:10:56;;;;;;;0.60;0.60;;;;;;;;;;5035965;28;20211;-82
2022/09/21 06:13:25;;;;;;;0.60;0.60;;;;;;;;;;5021117;28;20221;-82
2022/09/21 06:15:53;;;;;;;0.60;0.60;;;;;;;;;;5054849;28;20206;-82
2022/09/21 06:18:22;;;;;;;0.50;0.50;;;;;;;;;;5020542;28;20199;-82
2022/09/21 06:20:50;;;;;;;2.67;2.47;;;;;;;;;;5029804;28;20202;-82
2022/09/21 06:23:19;;;;;;;0.70;0.70;;;;;;;;;;5020512;28;20234;-82
2022/09/21 06:25:53;;;;;;;1.90;1.70;;;;;;;;;;5030265;28;20202;-82
2022/09/21 06:28:26;;;;;;;0.60;0.60;;;;;;;;;;5048395;28;20199;-82
2022/09/21 06:30:56;;;;;;;0.57;0.57;;;;;;;;;;5031163;28;20213;-83
2022/09/21 06:33:24;;;;;;;0.53;0.53;;;;;;;;;;5018710;28;20227;-82
2022/09/21 06:35:55;;;;;;;0.60;0.60;;;;;;;;;;5031792;28;20244;-82
2022/09/21 06:42:08;;;;;;;0.90;0.90;;;;;;;;;;5003503;28;20261;-83
2022/09/21 06:47:49;;;;;;;1.00;1.00;;;;;;;;;;5023030;28;20202;-84
2022/09/21 06:50:33;;;;;;;0.50;0.50;;;;;;;;;;5025951;28;20202;-81
2022/09/21 07:00:53;;;;;;;1.83;1.47;;;;;;;;;;4963930;28;20204;-84
2022/09/21 07:03:45;;;;;;;0.70;0.70;;;;;;;;;;5008303;28;20268;-83
2022/09/21 07:06:24;;;;;;;1.53;1.43;;;;;;;;;;5010406;28;20203;-83
2022/09/21 07:08:57;;;;;;;0.50;0.50;;;;;;;;;;5025937;28;20220;-82
2022/09/21 07:11:49;;;;;;;0.50;0.50;;;;;;;;;;5012098;28;20210;-82
2022/09/21 07:17:59;;;;;;;0.60;0.60;;;;;;;;;;4931614;29;20202;-83
2022/09/21 07:20:44;;;;;;;0.50;0.50;;;;;;;;;;4949988;29;20230;-82
2022/09/21 07:23:43;;;;;;;0.50;0.50;;;;;;;;;;4926536;29;20205;-83
2022/09/21 07:26:30;;;;;;;0.40;0.40;;;;;;;;;;4934289;29;20282;-83
2022/09/21 07:29:16;;;;;;;0.50;0.50;;;;;;;;;;4978994;28;20295;-83
2022/09/21 07:31:56;;;;;;;0.70;0.70;;;;;;;;;;5029656;28;20232;-83
2022/09/21 07:38:07;;;;;;;1.13;1.07;;;;;;;;;;4962941;28;20209;-83
2022/09/21 07:44:08;;;;;;;0.40;0.40;;;;;;;;;;4931929;28;20234;-83
2022/09/21 07:46:54;;;;;;;0.50;0.50;;;;;;;;;;4961943;28;20214;-84
2022/09/21 07:49:48;;;;;;;0.70;0.70;;;;;;;;;;4933358;29;20244;-84
2022/09/21 07:52:35;;;;;;;0.70;0.70;;;;;;;;;;4935799;29;20212;-84
2022/09/21 07:55:37;;;;;;;0.80;0.80;;;;;;;;;;4937010;28;20211;-83
2022/09/21 08:01:40;;;;;;;5.87;2.10;;;;;;;;;;4930353;29;20237;-84
2022/09/21 08:04:39;;;;;;;1.47;1.20;;;;;;;;;;4932063;28;20202;-83
2022/09/21 08:07:32;;;;;;;3.27;2.23;;;;;;;;;;4929612;28;20227;-83
2022/09/21 08:10:11;;;;;;;0.50;0.50;;;;;;;;;;5000538;28;20233;-83
2022/09/21 08:13:08;;;;;;;5.10;1.87;;;;;;;;;;5023983;28;20209;-84
2022/09/21 08:18:43;;;;;;;1.37;1.37;;;;;;;;;;5009976;28;20208;-84
2022/09/21 08:21:14;;;;;;;5.53;1.57;;;;;;;;;;5009322;28;20224;-84
2022/09/21 08:23:51;;;;;;;0.77;0.77;;;;;;;;;;5010139;28;20212;-82
2022/09/21 08:26:23;;;;;;;1.83;1.10;;;;;;;;;;5007736;28;21096;-82
2022/09/21 08:28:58;;;;;;;3.13;1.50;;;;;;;;;;5014474;28;20220;-82
2022/09/21 08:35:33;;;;;;;1.27;1.03;;;;;;;;;;5008406;28;20244;-84
2022/09/21 08:39:06;;;;;;;0.57;0.57;;;;;;;;;;5022324;28;20312;-84
2022/09/21 09:24:31;;;;;;;0.40;0.40;;;;;;;;;;4835410;29;20251;-84
2022/09/21 09:27:31;;;;;;;1.37;1.27;;;;;;;;;;4999578;28;20269;-84
2022/09/21 09:30:24;;;;;;;0.43;0.43;;;;;;;;;;4980713;28;20258;-84
2022/09/21 09:33:19;;;;;;;0.40;0.40;;;;;;;;;;5000753;28;20234;-83
2022/09/21 09:36:03;;;;;;;2.00;1.30;;;;;;;;;;5001173;28;20234;-83
2022/09/21 09:38:47;;;;;;;0.43;0.43;;;;;;;;;;4985401;28;20240;-84
2022/09/21 09:41:49;;;;;;;1.60;1.43;;;;;;;;;;4990392;28;20207;-85
2022/09/21 09:44:59;;;;;;;0.93;0.60;;;;;;;;;;4983080;28;20205;-83
2022/09/21 09:47:52;;;;;;;0.60;0.60;;;;;;;;;;5004724;28;20205;-84
2022/09/21 09:50:40;;;;;;;0.40;0.40;;;;;;;;;;5013809;28;20249;-84
2022/09/21 09:53:16;;;;;;;0.43;0.43;;;;;;;;;;5008624;28;20210;-84
2022/09/21 09:56:11;;;;;;;;;;;;;;;;;;;;;
2022/09/21 09:58:42;;;;;;;2.33;1.50;;;;;;;;;;5012018;28;20225;-82
2022/09/21 10:01:46;;;;;;;1.23;0.77;;;;;;;;;;5009120;28;20357;-81
2022/09/21 10:04:52;;;;;;;0.40;0.40;;;;;;;;;;5019227;28;20206;-82
2022/09/21 10:07:54;;;;;;;0.77;0.77;;;;;;;;;;5024056;28;20333;-82
2022/09/21 10:10:52;;;;;;;0.50;0.50;;;;;;;;;;5026385;28;20301;-82
2022/09/21 10:13:37;;;;;;;0.40;0.40;;;;;;;;;;5010190;28;20296;-83
2022/09/21 10:16:30;;;;;;;5.93;1.13;;;;;;;;;;5025912;28;20251;-84
2022/09/21 10:19:36;;;;;;;0.40;0.40;;;;;;;;;;5007228;28;20254;-83
2022/09/21 10:22:16;;;;;;;2.00;1.90;;;;;;;;;;5009545;28;20225;-83
2022/09/21 10:24:49;;;;;;;3.13;1.00;;;;;;;;;;5008734;28;20202;-82
2022/09/21 10:28:02;;;;;;;1.17;0.97;;;;;;;;;;5010995;28;20210;-82
2022/09/21 10:34:36;;;;;;;0.63;0.63;;;;;;;;;;4992137;28;20250;-83
2022/09/21 10:37:35;;;;;;;;;;;;;;;;;;;;;
2022/09/21 10:40:31;;;;;;;3.83;0.87;;;;;;;;;;5007760;28;20303;-84
2022/09/21 10:43:24;;;;;;;0.50;0.50;;;;;;;;;;4990832;28;20219;-84
2022/09/21 10:46:05;;;;;;;0.47;0.47;;;;;;;;;;4990285;28;20326;-83
2022/09/21 10:49:02;;;;;;;0.63;0.63;;;;;;;;;;4990366;28;20307;-84
2022/09/21 10:52:10;;;;;;;3.17;1.50;;;;;;;;;;4990482;28;20294;-84
2022/09/21 10:54:52;;;;;;;1.90;0.50;;;;;;;;;;4991476;28;20212;-85
2022/09/21 10:57:33;;;;;;;0.40;0.40;;;;;;;;;;4996250;28;20336;-82
2022/09/21 11:00:34;;;;;;;3.30;1.20;;;;;;;;;;4991809;28;20276;-83
2022/09/21 11:03:23;;;;;;;0.50;0.50;;;;;;;;;;5006100;28;20215;-82
2022/09/21 11:06:14;;;;;;;0.40;0.40;;;;;;;;;;5007474;28;20227;-83
2022/09/21 11:08:52;;;;;;;0.40;0.40;;;;;;;;;;5001538;28;20246;-83
2022/09/21 11:11:43;;;;;;;1.00;0.90;;;;;;;;;;5008857;28;20296;-83
2022/09/21 11:14:38;;;;;;;0.50;0.50;;;;;;;;;;4999559;28;20277;-83
2022/09/21 11:18:01;;;;;;;6.80;1.20;;;;;;;;;;5003041;28;20244;-83
2022/09/21 11:20:52;;;;;;;0.40;0.40;;;;;;;;;;4990105;28;20802;-83
2022/09/21 11:27:04;;;;;;;0.40;0.40;;;;;;;;;;4987898;28;20233;-84
2022/09/21 11:29:57;;;;;;;0.40;0.40;;;;;;;;;;4990265;28;20203;-82
2022/09/21 11:32:47;;;;;;;3.40;1.13;;;;;;;;;;5009976;28;20262;-83
2022/09/21 11:35:34;;;;;;;2.13;2.00;;;;;;;;;;4951802;28;20205;-84
2022/09/21 11:38:15;;;;;;;0.77;0.70;;;;;;;;;;5005652;28;20207;-84
2022/09/21 11:41:05;;;;;;;0.40;0.40;;;;;;;;;;4994188;28;20219;-85
2022/09/21 11:43:46;;;;;;;5.53;1.57;;;;;;;;;;4992154;28;20224;-83
2022/09/21 11:46:24;;;;;;;0.73;0.73;;;;;;;;;;5010353;28;20286;-85
2022/09/21 11:49:03;;;;;;;3.60;1.33;;;;;;;;;;4992166;28;20218;-85
2022/09/21 11:51:58;;;;;;;3.90;1.17;;;;;;;;;;4993556;28;20217;-85
2022/09/21 11:54:55;;;;;;;0.97;0.60;;;;;;;;;;4994954;28;20301;-83
2022/09/21 11:57:27;;;;;;;1.30;0.67;;;;;;;;;;4958664;28;20215;-84
2022/09/21 12:00:20;;;;;;;1.97;1.03;;;;;;;;;;5011363;28;20196;-84
2022/09/21 12:03:02;;;;;;;0.57;0.57;;;;;;;;;;4988960;28;20228;-85
2022/09/21 12:05:39;;;;;;;1.87;1.03;;;;;;;;;;4997952;28;20312;-85
2022/09/21 12:08:20;;;;;;;0.40;0.40;;;;;;;;;;4993398;28;20210;-86
2022/09/21 12:10:57;;;;;;;1.67;0.97;;;;;;;;;;4989526;28;20300;-85
2022/09/21 12:13:31;;;;;;;0.40;0.40;;;;;;;;;;5007362;28;20205;-85
2022/09/21 12:16:05;;;;;;;0.47;0.47;;;;;;;;;;4993510;28;20202;-85
2022/09/21 12:18:39;;;;;;;0.30;0.30;;;;;;;;;;4988980;28;20213;-84
2022/09/21 12:21:20;;;;;;;0.33;0.33;;;;;;;;;;4994118;28;20200;-85
2022/09/21 12:24:04;;;;;;;0.40;0.40;;;;;;;;;;4989969;28;20224;-86
2022/09/21 12:26:49;;;;;;;0.30;0.30;;;;;;;;;;4989001;28;20215;-86
2022/09/21 12:29:31;;;;;;;0.60;0.60;;;;;;;;;;4990768;28;20215;-85
2022/09/21 12:32:13;;;;;;;0.70;0.70;;;;;;;;;;4992924;28;20326;-84
2022/09/21 12:34:52;;;;;;;0.70;0.70;;;;;;;;;;5010635;28;20210;-84
2022/09/21 12:37:30;;;;;;;2.30;0.80;;;;;;;;;;4995524;28;20224;-90
2022/09/21 12:43:44;;;;;;;0.60;0.50;;;;;;;;;;4999218;28;20196;-88
2022/09/21 12:46:19;;;;;;;1.07;0.73;;;;;;;;;;4984458;28;20297;-87
2022/09/21 12:52:13;;;;;;;0.90;0.87;;;;;;;;;;4995070;28;20199;-88
2022/09/21 12:54:50;;;;;;;0.40;0.40;;;;;;;;;;4990648;28;20245;-86
2022/09/21 12:57:33;;;;;;;0.50;0.50;;;;;;;;;;5009114;28;20233;-86
2022/09/21 13:00:40;;;;;;;1.43;0.73;;;;;;;;;;4993025;28;20218;-83
2022/09/21 13:03:13;;;;;;;0.60;0.60;;;;;;;;;;5005201;28;20204;-83
2022/09/21 13:05:51;;;;;;;1.07;0.77;;;;;;;;;;4990532;28;20206;-84
2022/09/21 13:08:38;;;;;;;2.63;1.10;;;;;;;;;;5005128;28;20204;-83
2022/09/21 13:11:09;;;;;;;1.27;0.67;;;;;;;;;;4988884;28;20208;-83
2022/09/21 13:13:50;;;;;;;0.63;0.63;;;;;;;;;;4989579;28;20201;-84
2022/09/21 13:16:30;;;;;;;0.40;0.40;;;;;;;;;;5004471;28;20221;-84
2022/09/21 13:19:20;;;;;;;3.50;0.70;;;;;;;;;;4990232;28;20201;-83
2022/09/21 13:22:13;;;;;;;0.50;0.50;;;;;;;;;;4990679;28;20211;-84
2022/09/21 13:24:47;;;;;;;2.00;1.27;;;;;;;;;;5011807;28;20204;-83
2022/09/21 13:27:16;;;;;;;2.60;0.73;;;;;;;;;;4991847;28;20304;-84
2022/09/21 13:30:09;;;;;;;0.60;0.60;;;;;;;;;;5007223;28;20209;-85
2022/09/21 13:33:17;;;;;;;1.27;1.00;;;;;;;;;;4995482;28;20240;-84
2022/09/21 13:36:28;;;;;;;0.50;0.50;;;;;;;;;;4994658;28;20234;-87
2022/09/21 13:39:18;;;;;;;0.40;0.40;;;;;;;;;;4992187;28;20209;-87
2022/09/21 13:41:50;;;;;;;0.40;0.40;;;;;;;;;;4992275;28;20214;-86
2022/09/21 13:44:45;;;;;;;1.57;1.47;;;;;;;;;;5008272;28;20211;-87
2022/09/21 13:47:28;;;;;;;0.70;0.70;;;;;;;;;;5010049;28;20232;-87
2022/09/21 13:50:03;;;;;;;3.30;0.77;;;;;;;;;;5003433;28;20202;-88
2022/09/21 13:52:40;;;;;;;0.43;0.43;;;;;;;;;;5011545;28;20260;-85
2022/09/21 13:55:23;;;;;;;1.10;1.07;;;;;;;;;;4993713;28;20199;-85
2022/09/21 13:58:03;;;;;;;1.10;0.73;;;;;;;;;;5007855;28;20193;-85
2022/09/21 14:00:58;;;;;;;2.00;1.23;;;;;;;;;;4993549;28;20221;-88
2022/09/21 14:03:36;;;;;;;0.30;0.30;;;;;;;;;;5012114;28;20199;-84
2022/09/21 14:06:07;;;;;;;0.40;0.40;;;;;;;;;;4992679;28;20228;-84
2022/09/21 14:08:37;;;;;;;0.40;0.40;;;;;;;;;;4986890;28;20225;-84
2022/09/21 14:11:08;;;;;;;0.60;0.60;;;;;;;;;;4993286;28;20263;-86
2022/09/21 14:13:40;;;;;;;0.40;0.40;;;;;;;;;;4991337;28;20200;-86
2022/09/21 14:16:44;;;;;;;1.00;1.00;;;;;;;;;;5004020;28;20226;-85
2022/09/21 14:19:32;;;;;;;1.33;0.57;;;;;;;;;;4969212;28;20235;-86
2022/09/21 14:22:19;;;;;;;0.50;0.50;;;;;;;;;;4981509;28;20202;-87
2022/09/21 14:24:50;;;;;;;0.60;0.60;;;;;;;;;;5011900;28;20202;-90
2022/09/21 14:27:27;;;;;;;0.40;0.40;;;;;;;;;;4999014;28;20221;-83
2022/09/21 14:30:03;;;;;;;0.47;0.47;;;;;;;;;;4995447;28;20197;-85
2022/09/21 14:32:38;;;;;;;0.33;0.33;;;;;;;;;;4994970;28;20239;-86
2022/09/21 14:35:15;;;;;;;0.40;0.40;;;;;;;;;;4991861;28;20201;-86
2022/09/21 14:37:51;;;;;;;7.77;0.90;;;;;;;;;;5006260;28;20207;-87
2022/09/21 14:40:22;;;;;;;0.77;0.70;;;;;;;;;;4981614;28;20202;-87
2022/09/21 14:43:02;;;;;;;0.30;0.30;;;;;;;;;;5000356;28;20212;-88
2022/09/21 14:45:39;;;;;;;0.53;0.53;;;;;;;;;;5000083;28;20213;-86
2022/09/21 14:48:15;;;;;;;1.03;0.97;;;;;;;;;;4984602;28;20372;-86
2022/09/21 14:50:54;;;;;;;0.83;0.83;;;;;;;;;;4986696;28;20203;-86
2022/09/21 14:54:03;;;;;;;0.60;0.60;;;;;;;;;;4986444;28;20256;-85
2022/09/21 14:56:59;;;;;;;0.30;0.30;;;;;;;;;;5001425;28;20304;-84
2022/09/21 14:59:37;;;;;;;0.50;0.50;;;;;;;;;;4996002;28;20211;-84
2022/09/21 15:02:16;;;;;;;0.30;0.30;;;;;;;;;;5005213;28;20242;-84
2022/09/21 15:04:58;;;;;;;5.47;1.47;;;;;;;;;;5001636;28;20302;-85
2022/09/21 15:13:25;;;;;;;0.40;0.40;;;;;;;;;;4991954;28;20203;-85
2022/09/21 15:16:16;;;;;;;0.77;0.77;;;;;;;;;;5020679;28;20294;-84
2022/09/21 15:19:12;;;;;;;0.30;0.30;;;;;;;;;;5009719;28;20188;-84
2022/09/21 15:21:51;;;;;;;0.40;0.40;;;;;;;;;;5004040;28;20199;-85
2022/09/21 15:24:24;;;;;;;0.30;0.30;;;;;;;;;;5000420;28;20215;-84
2022/09/21 15:27:03;;;;;;;0.50;0.50;;;;;;;;;;4993036;28;20262;-83
2022/09/21 15:29:33;;;;;;;0.30;0.30;;;;;;;;;;4992530;28;20471;-85
2022/09/21 15:32:02;;;;;;;0.40;0.40;;;;;;;;;;5007180;28;20213;-86
2022/09/21 15:34:30;;;;;;;0.50;0.50;;;;;;;;;;4994262;28;20261;-86
2022/09/21 15:37:15;;;;;;;0.70;0.70;;;;;;;;;;4992423;28;20206;-85
2022/09/21 15:39:44;;;;;;;1.53;1.53;;;;;;;;;;4993594;28;20265;-86
2022/09/21 15:42:22;;;;;;;1.17;1.17;;;;;;;;;;4997803;28;20285;-86
2022/09/21 15:44:53;;;;;;;0.40;0.40;;;;;;;;;;5013131;28;20215;-84
2022/09/21 15:47:22;;;;;;;0.67;0.67;;;;;;;;;;5002064;28;20249;-86
2022/09/21 15:49:54;;;;;;;4.07;1.03;;;;;;;;;;5001886;28;20234;-86
2022/09/21 15:52:28;;;;;;;3.00;2.30;;;;;;;;;;4999156;28;20211;-85
2022/09/21 15:54:59;;;;;;;0.30;0.30;;;;;;;;;;4988083;28;20239;-85
2022/09/21 15:57:34;;;;;;;0.50;0.50;;;;;;;;;;5026237;28;20217;-85
2022/09/21 16:00:19;;;;;;;2.13;0.63;;;;;;;;;;5001186;28;20207;-85
2022/09/21 16:02:54;;;;;;;0.40;0.40;;;;;;;;;;5026616;28;20198;-85
2022/09/21 16:05:25;;;;;;;0.37;0.37;;;;;;;;;;5023747;28;20293;-85
2022/09/21 16:08:06;;;;;;;0.47;0.47;;;;;;;;;;4989035;28;20216;-85
2022/09/21 16:10:39;;;;;;;0.33;0.33;;;;;;;;;;4996704;28;20228;-85
2022/09/21 16:16:01;;;;;;;0.30;0.30;;;;;;;;;;5014729;28;20216;-85
2022/09/21 16:18:34;;;;;;;0.40;0.40;;;;;;;;;;5016201;28;20199;-85
2022/09/21 16:21:09;;;;;;;0.30;0.30;;;;;;;;;;5003998;28;20207;-85
2022/09/21 16:23:39;;;;;;;1.33;1.23;;;;;;;;;;5033451;28;20202;-85
2022/09/21 16:26:07;;;;;;;0.30;0.30;;;;;;;;;;5014223;28;20210;-85
2022/09/21 16:28:37;;;;;;;0.40;0.40;;;;;;;;;;5033045;28;20215;-85
2022/09/21 16:31:27;;;;;;;0.30;0.30;;;;;;;;;;5015147;28;20228;-85
2022/09/21 16:33:59;;;;;;;0.30;0.30;;;;;;;;;;5000211;28;20279;-85
2022/09/21 16:36:43;;;;;;;0.60;0.60;;;;;;;;;;5011401;28;20207;-84
2022/09/21 16:39:17;;;;;;;0.30;0.30;;;;;;;;;;5000210;28;20286;-84
2022/09/21 16:41:47;;;;;;;0.40;0.40;;;;;;;;;;4998283;28;20231;-85
2022/09/21 16:44:19;;;;;;;0.40;0.40;;;;;;;;;;5000111;28;20198;-85
2022/09/21 16:46:50;;;;;;;0.40;0.40;;;;;;;;;;4998040;28;20204;-85
2022/09/21 16:49:20;;;;;;;0.50;0.50;;;;;;;;;;5000633;28;20205;-85
2022/09/21 16:51:50;;;;;;;0.30;0.30;;;;;;;;;;5005023;28;20207;-84
2022/09/21 16:54:24;;;;;;;0.30;0.30;;;;;;;;;;5007796;28;20205;-84
2022/09/21 16:56:53;;;;;;;2.73;1.33;;;;;;;;;;5014601;28;20328;-85
2022/09/21 16:59:22;;;;;;;0.30;0.30;;;;;;;;;;5016933;28;20209;-85
2022/09/21 17:01:51;;;;;;;0.30;0.30;;;;;;;;;;5018160;28;20230;-84
2022/09/21 17:04:24;;;;;;;0.50;0.50;;;;;;;;;;5008751;28;20233;-85
2022/09/21 17:06:54;;;;;;;0.40;0.40;;;;;;;;;;5034271;28;20230;-85
2022/09/21 17:09:25;;;;;;;0.30;0.30;;;;;;;;;;5009581;28;20246;-84
2022/09/21 17:12:00;;;;;;;0.30;0.30;;;;;;;;;;5003702;28;20202;-85
2022/09/21 17:14:31;;;;;;;0.30;0.30;;;;;;;;;;5019279;28;20207;-85
2022/09/21 17:17:02;;;;;;;0.30;0.30;;;;;;;;;;5035999;28;20209;-84
2022/09/21 17:19:31;;;;;;;0.40;0.40;;;;;;;;;;5018612;28;20222;-84
2022/09/21 17:21:59;;;;;;;0.30;0.30;;;;;;;;;;4988355;28;20195;-84
2022/09/21 17:24:31;;;;;;;0.30;0.30;;;;;;;;;;5011836;28;20199;-84
2022/09/21 17:27:17;;;;;;;0.53;0.53;;;;;;;;;;5017107;28;20215;-85